Time;durP1;ratioP1;P1;durP2;ratioP2;P2;SDS_P1;SDS_P2;PMS_P1;PMS_P2;Temp;Humidity;BMP_temperature;BMP_pressure;BME280_temperature;BME280_humidity;BME280_pressure;Samples;Min_cycle;Max_cycle;Signal;HPM_P1;HPM_P2
2023/04/02 00:01:05;;;;;;;1.73;1.52;;;;;;;2.99;100.00;92232.56;1969733;30;20039;-90
2023/04/02 00:02:22;;;;;;;2.65;1.45;;;;;;;2.96;100.00;92232.56;1963565;30;20071;-89
2023/04/02 00:03:52;;;;;;;3.75;1.58;;;;;;;3.00;100.00;92228.78;1961657;30;20036;-89
2023/04/02 00:05:33;;;;;;;1.88;1.30;;;;;;;3.05;100.00;92232.13;1963681;30;20313;-89
2023/04/02 00:06:53;;;;;;;1.55;1.17;;;;;;;2.99;100.00;92237.84;1969050;30;20180;-87
2023/04/02 00:08:02;;;;;;;2.75;1.75;;;;;;;2.85;100.00;92237.91;1962006;30;20060;-88
2023/04/02 00:09:23;;;;;;;1.90;1.38;;;;;;;2.91;100.00;92239.03;1960575;30;20035;-88
2023/04/02 00:10:48;;;;;;;4.63;2.20;;;;;;;2.89;100.00;92240.53;1957371;30;20041;-87
2023/04/02 00:11:55;;;;;;;2.78;1.40;;;;;;;2.93;100.00;92244.66;1971880;30;20054;-88
2023/04/02 00:13:11;;;;;;;1.73;1.25;;;;;;;2.99;100.00;92245.75;1965186;30;20096;-87
2023/04/02 00:14:32;;;;;;;3.45;1.58;;;;;;;3.06;100.00;92237.00;1958343;30;20135;-88
2023/04/02 00:15:40;;;;;;;1.83;1.50;;;;;;;2.96;100.00;92246.53;1970346;30;20032;-88
2023/04/02 00:16:43;;;;;;;2.05;1.60;;;;;;;2.98;100.00;92241.59;1978424;30;20039;-86
2023/04/02 00:17:49;;;;;;;2.08;1.52;;;;;;;2.96;100.00;92240.50;1966364;30;20036;-86
2023/04/02 00:18:57;;;;;;;2.22;1.70;;;;;;;2.88;100.00;92239.03;1966069;30;20027;-90
2023/04/02 00:20:07;;;;;;;3.75;1.20;;;;;;;2.95;100.00;92239.75;1965697;30;20576;-88
2023/04/02 00:21:25;;;;;;;2.97;1.55;;;;;;;2.90;100.00;92242.81;1969808;30;20418;-86
2023/04/02 00:22:43;;;;;;;2.67;1.50;;;;;;;2.97;100.00;92242.75;1972500;30;20497;-87
2023/04/02 00:23:45;;;;;;;1.83;1.70;;;;;;;2.94;100.00;92243.53;1971423;30;20043;-88
2023/04/02 00:24:56;;;;;;;2.85;1.30;;;;;;;3.00;100.00;92243.88;1972682;30;20031;-88
2023/04/02 00:26:22;;;;;;;2.80;1.50;;;;;;;2.98;100.00;92246.13;1965286;30;20047;-86
2023/04/02 00:27:31;;;;;;;3.05;1.60;;;;;;;2.99;100.00;92245.75;1968075;30;20031;-87
2023/04/02 00:28:40;;;;;;;1.80;1.55;;;;;;;2.96;100.00;92254.44;1962201;30;20134;-88
2023/04/02 00:30:03;;;;;;;1.48;1.30;;;;;;;3.04;100.00;92244.59;1956210;30;20037;-87
2023/04/02 00:31:12;;;;;;;;;;;;;;;3.05;100.00;92246.09;1955644;30;20036;-89
2023/04/02 00:32:30;;;;;;;2.13;1.15;;;;;;;3.07;100.00;92253.59;1966808;30;20287;-88
2023/04/02 00:33:35;;;;;;;1.35;1.17;;;;;;;2.97;100.00;92247.28;1969986;30;20043;-88
2023/04/02 00:34:49;;;;;;;1.52;1.10;;;;;;;2.93;100.00;92252.56;1967923;30;20035;-86
2023/04/02 00:36:01;;;;;;;2.90;1.52;;;;;;;2.90;100.00;92248.09;1974529;30;20095;-86
2023/04/02 00:37:07;;;;;;;3.65;1.50;;;;;;;2.94;100.00;92243.53;1959352;30;20039;-87
2023/04/02 00:38:33;;;;;;;2.75;2.03;;;;;;;2.88;100.00;92246.97;1959079;30;20035;-88
2023/04/02 00:39:59;;;;;;;1.95;1.20;;;;;;;2.91;100.00;92249.59;1972904;30;20617;-87
2023/04/02 00:41:14;;;;;;;2.42;1.13;;;;;;;2.89;100.00;92248.47;1966571;30;20155;-88
2023/04/02 00:42:24;;;;;;;1.55;1.27;;;;;;;2.85;100.00;92245.09;1967646;30;20032;-89
2023/04/02 00:43:36;;;;;;;1.35;1.20;;;;;;;3.00;100.00;92251.78;1963822;30;20042;-88
2023/04/02 00:44:47;;;;;;;2.55;1.10;;;;;;;2.96;100.00;92245.78;1973167;30;20024;-86
2023/04/02 00:46:02;;;;;;;1.48;1.13;;;;;;;2.93;100.00;92247.28;1970197;30;20027;-89
2023/04/02 00:47:31;;;;;;;2.15;1.15;;;;;;;2.89;100.00;92246.56;1967886;30;20028;-86
2023/04/02 00:48:46;;;;;;;2.10;1.15;;;;;;;2.86;100.00;92247.34;1971784;30;20042;-88
2023/04/02 00:49:56;;;;;;;2.42;1.30;;;;;;;2.84;100.00;92249.63;1972594;30;20534;-88
2023/04/02 00:51:26;;;;;;;2.45;1.30;;;;;;;2.76;100.00;92248.91;1961440;30;20033;-86
2023/04/02 00:52:36;;;;;;;1.20;1.10;;;;;;;2.76;100.00;92245.53;1964750;30;20417;-87
2023/04/02 00:53:40;;;;;;;1.63;1.25;;;;;;;2.82;100.00;92244.00;1973750;30;20034;-86
2023/04/02 00:55:25;;;;;;;1.63;1.40;;;;;;;2.82;100.00;92251.16;1961822;30;20039;-89
2023/04/02 00:56:42;;;;;;;2.33;1.30;;;;;;;2.86;100.00;92254.53;1967854;30;20375;-89
2023/04/02 00:57:54;;;;;;;1.52;1.30;;;;;;;2.80;100.00;92250.78;1959022;30;20130;-87
2023/04/02 00:59:04;;;;;;;2.25;1.08;;;;;;;2.80;100.00;92248.88;1971737;29;20028;-89
2023/04/02 01:00:22;;;;;;;1.80;1.20;;;;;;;2.78;100.00;92251.94;1991763;29;20121;-86
2023/04/02 01:01:41;;;;;;;2.22;1.25;;;;;;;2.84;100.00;92243.59;1981926;29;20130;-87
2023/04/02 01:03:17;;;;;;;1.42;0.95;;;;;;;2.82;100.00;92248.53;1974856;30;20039;-88
2023/04/02 01:04:40;;;;;;;1.10;1.00;;;;;;;2.88;100.00;92244.31;1977995;30;20529;-87
2023/04/02 01:06:09;;;;;;;1.10;0.95;;;;;;;3.06;100.00;92246.81;1972477;30;20039;-89
2023/04/02 01:07:16;;;;;;;2.15;1.13;;;;;;;2.94;100.00;92251.44;1975398;30;20023;-88
2023/04/02 01:08:42;;;;;;;1.05;0.98;;;;;;;2.92;100.00;92240.50;1975615;30;20043;-89
2023/04/02 01:10:29;;;;;;;1.83;1.00;;;;;;;2.91;100.00;92243.56;1979166;30;20031;-86
2023/04/02 01:12:15;;;;;;;1.55;1.15;;;;;;;2.93;100.00;92238.63;1985201;29;20038;-87
2023/04/02 01:13:40;;;;;;;2.15;1.00;;;;;;;2.87;100.00;92240.94;1980903;29;20034;-88
2023/04/02 01:15:09;;;;;;;1.83;0.93;;;;;;;2.85;100.00;92248.47;1975414;30;20036;-88
2023/04/02 01:16:37;;;;;;;1.52;0.90;;;;;;;2.76;100.00;92245.53;1983496;29;20426;-88
2023/04/02 01:18:05;;;;;;;3.15;0.98;;;;;;;2.76;100.00;92245.53;1982382;29;20114;-88
2023/04/02 01:19:36;;;;;;;2.35;1.00;;;;;;;2.75;100.00;92242.13;1970700;30;20034;-87
2023/04/02 01:20:55;;;;;;;2.03;1.00;;;;;;;2.71;100.00;92246.69;1975034;29;20516;-88
2023/04/02 01:22:29;;;;;;;2.03;1.10;;;;;;;2.73;100.00;92246.31;1969560;30;20590;-88
2023/04/02 01:23:53;;;;;;;1.60;0.85;;;;;;;2.72;100.00;92242.16;1977825;29;20057;-88
2023/04/02 01:25:00;;;;;;;2.03;0.95;;;;;;;2.70;100.00;92247.84;1976168;30;20039;-88
2023/04/02 01:26:35;;;;;;;3.33;0.90;;;;;;;2.68;100.00;92242.19;1978999;30;20150;-87
2023/04/02 01:28:05;;;;;;;1.90;1.08;;;;;;;2.72;100.00;92242.16;1964807;30;20043;-89
2023/04/02 01:29:20;;;;;;;3.58;1.17;;;;;;;2.67;100.00;92247.84;1974545;30;20034;-87
2023/04/02 01:30:28;;;;;;;1.20;1.10;;;;;;;2.69;100.00;92240.31;1957925;30;20094;-87
2023/04/02 01:31:34;;;;;;;1.55;1.38;;;;;;;2.69;100.00;92245.59;1960647;30;20024;-88
2023/04/02 01:32:36;;;;;;;1.98;1.35;;;;;;;2.68;100.00;92246.72;1962996;30;20032;-87
2023/04/02 01:33:45;;;;;;;0.90;0.90;;;;;;;2.66;100.00;92246.34;1958804;30;20052;-90
2023/04/02 01:34:53;;;;;;;3.42;1.30;;;;;;;2.68;100.00;92252.75;1961552;30;20059;-88
2023/04/02 01:36:26;;;;;;;1.80;1.02;;;;;;;2.69;100.00;92248.22;1970394;30;20043;-86
2023/04/02 01:37:50;;;;;;;1.00;1.00;;;;;;;2.73;100.00;92246.31;1968147;30;20121;-87
2023/04/02 01:39:13;;;;;;;2.38;1.20;;;;;;;2.68;100.00;92254.66;1970493;30;20031;-88
2023/04/02 01:40:45;;;;;;;2.17;0.80;;;;;;;2.72;100.00;92250.84;1966817;30;20028;-88
2023/04/02 01:42:08;;;;;;;1.00;0.90;;;;;;;2.75;100.00;92250.06;1968913;30;20084;-90
2023/04/02 01:43:27;;;;;;;0.98;0.90;;;;;;;2.72;100.00;92244.78;1959192;30;20083;-89
2023/04/02 01:44:37;;;;;;;3.38;1.00;;;;;;;2.75;100.00;92251.94;1968591;30;20044;-89
2023/04/02 01:45:38;;;;;;;1.00;0.90;;;;;;;2.74;100.00;92253.09;1975016;30;20034;-88
2023/04/02 01:46:51;;;;;;;1.02;0.80;;;;;;;2.69;100.00;92248.97;1976352;30;20035;-88
2023/04/02 01:47:54;;;;;;;1.35;1.10;;;;;;;2.83;100.00;92247.38;1976434;30;20027;-88
2023/04/02 01:49:01;;;;;;;1.35;0.90;;;;;;;2.80;100.00;92251.53;1978617;30;20027;-89
2023/04/02 01:50:32;;;;;;;4.43;0.90;;;;;;;2.82;100.00;92244.00;1973377;29;20139;-88
2023/04/02 01:51:39;;;;;;;3.25;0.93;;;;;;;2.80;100.00;92248.16;1963874;30;20048;-88
2023/04/02 01:52:45;;;;;;;1.42;1.00;;;;;;;2.79;100.00;92250.03;1968502;30;20537;-90
2023/04/02 01:53:46;;;;;;;1.83;0.90;;;;;;;2.70;100.00;92258.38;1963827;30;20090;-89
2023/04/02 01:54:47;;;;;;;1.45;0.90;;;;;;;2.72;100.00;92256.13;1964245;30;20040;-90
2023/04/02 01:56:01;;;;;;;2.65;0.80;;;;;;;2.75;100.00;92259.88;1964281;30;20063;-87
2023/04/02 01:57:04;;;;;;;2.92;1.70;;;;;;;2.71;100.00;92259.88;1958704;30;20057;-88
2023/04/02 01:58:10;;;;;;;1.00;0.80;;;;;;;2.68;100.00;92257.28;1964450;30;20470;-88
2023/04/02 01:59:16;;;;;;;1.85;0.90;;;;;;;2.70;100.00;92260.28;1968438;30;20860;-88
2023/04/02 02:00:21;;;;;;;0.90;0.70;;;;;;;2.73;100.00;92264.78;1975588;30;20168;-89
2023/04/02 02:01:56;;;;;;;0.98;0.90;;;;;;;2.72;100.00;92263.25;1976052;30;20118;-89
2023/04/02 02:03:00;;;;;;;1.75;0.88;;;;;;;2.73;100.00;92268.19;1970029;30;20039;-89
2023/04/02 02:04:03;;;;;;;2.20;0.80;;;;;;;2.70;100.00;92266.31;1964976;30;20056;-87
2023/04/02 02:05:14;;;;;;;1.30;1.00;;;;;;;2.73;100.00;92264.78;1964609;30;20051;-89
2023/04/02 02:06:32;;;;;;;0.88;0.88;;;;;;;2.73;100.00;92259.50;1968620;30;20463;-87
2023/04/02 02:07:33;;;;;;;2.05;0.98;;;;;;;2.73;100.00;92270.81;1960098;30;20068;-87
2023/04/02 02:08:45;;;;;;;1.92;1.05;;;;;;;2.69;100.00;92262.16;1964503;30;20105;-87
2023/04/02 02:09:48;;;;;;;1.40;0.80;;;;;;;2.66;100.00;92262.19;1968076;30;20458;-88
2023/04/02 02:10:50;;;;;;;1.10;0.95;;;;;;;2.69;100.00;92258.78;1971918;29;20032;-90
2023/04/02 02:11:51;;;;;;;1.60;0.90;;;;;;;2.62;100.00;92262.19;1965662;30;20402;-86
2023/04/02 02:12:53;;;;;;;1.67;0.90;;;;;;;2.60;100.00;92261.09;1971994;30;20089;-88
2023/04/02 02:13:59;;;;;;;1.42;0.90;;;;;;;2.58;100.00;92258.81;1971627;30;20561;-87
2023/04/02 02:15:01;;;;;;;1.08;0.98;;;;;;;2.56;100.00;92257.72;1972709;30;20040;-89
2023/04/02 02:16:03;;;;;;;1.15;1.00;;;;;;;2.57;100.00;92264.50;1977825;30;20504;-89
2023/04/02 02:17:12;;;;;;;1.27;0.80;;;;;;;2.57;100.00;92265.25;1979501;30;20039;-87
2023/04/02 02:30:33;;;;;;;;;;;;;;;2.50;100.00;92263.41;2138402;27;20162;-84
2023/04/02 02:31:40;;;;;;;1.17;0.60;;;;;;;2.49;100.00;92261.88;2123765;27;19926;-84
2023/04/02 02:32:57;;;;;;;2.40;0.65;;;;;;;2.48;100.00;92267.56;2108573;27;20414;-83
2023/04/02 02:34:04;;;;;;;1.27;0.55;;;;;;;2.48;100.00;92265.66;2119475;27;20472;-83
2023/04/02 02:35:14;;;;;;;0.65;0.50;;;;;;;2.50;100.00;92270.56;2113364;27;20030;-83
2023/04/02 02:36:27;;;;;;;2.88;0.50;;;;;;;2.54;100.00;92266.00;2116230;27;20092;-84
2023/04/02 02:37:33;;;;;;;1.42;0.50;;;;;;;2.54;100.00;92271.28;2114183;27;20455;-83
2023/04/02 02:39:02;;;;;;;1.23;0.68;;;;;;;2.60;100.00;92264.47;2117071;27;20028;-83
2023/04/02 02:40:11;;;;;;;3.60;0.50;;;;;;;2.67;100.00;92268.94;2119201;28;20547;-83
2023/04/02 02:41:26;;;;;;;2.22;0.50;;;;;;;2.75;100.00;92259.88;2116388;27;20050;-83
2023/04/02 02:42:40;;;;;;;0.70;0.70;;;;;;;2.75;100.00;92273.81;2113130;27;20478;-84
2023/04/02 02:44:00;;;;;;;1.67;0.60;;;;;;;2.73;100.00;92268.19;2110256;28;20374;-83
2023/04/02 02:45:05;;;;;;;2.05;0.68;;;;;;;2.73;100.00;92265.53;2115783;27;20042;-84
2023/04/02 02:46:10;;;;;;;3.03;0.60;;;;;;;2.74;100.00;92266.28;2115550;28;20118;-84
2023/04/02 02:47:23;;;;;;;2.60;0.60;;;;;;;2.75;100.00;92265.13;2108110;28;20020;-83
2023/04/02 02:48:35;;;;;;;2.97;0.70;;;;;;;2.75;100.00;92267.78;2116423;27;20100;-83
2023/04/02 02:49:51;;;;;;;3.55;0.60;;;;;;;2.77;100.00;92265.53;2117852;27;20032;-84
2023/04/02 02:50:54;;;;;;;1.33;0.70;;;;;;;2.82;100.00;92269.63;2120168;27;20041;-83
2023/04/02 02:52:07;;;;;;;3.03;0.60;;;;;;;2.85;100.00;92271.47;2116887;27;20504;-83
2023/04/02 02:53:19;;;;;;;2.35;1.00;;;;;;;2.88;100.00;92268.81;2127832;27;20134;-83
2023/04/02 02:54:20;;;;;;;2.78;0.60;;;;;;;2.86;100.00;92273.00;2121740;27;20035;-83
2023/04/02 02:55:28;;;;;;;2.08;0.70;;;;;;;2.87;100.00;92267.31;2114305;28;20159;-84
2023/04/02 02:56:33;;;;;;;0.60;0.60;;;;;;;2.88;100.00;92276.00;2112771;27;20028;-83
2023/04/02 02:57:43;;;;;;;0.93;0.60;;;;;;;2.90;100.00;92276.38;2120543;27;20169;-83
2023/04/02 02:58:47;;;;;;;2.75;0.75;;;;;;;2.93;100.00;92271.03;2122147;27;20503;-83
2023/04/02 02:59:55;;;;;;;2.53;0.60;;;;;;;2.90;100.00;92271.84;2119377;27;20122;-82
2023/04/02 03:00:56;;;;;;;2.38;0.50;;;;;;;2.93;100.00;92278.97;2109362;27;20555;-83
2023/04/02 03:02:15;;;;;;;1.27;0.50;;;;;;;2.95;100.00;92283.88;2116773;27;20327;-83
2023/04/02 03:03:28;;;;;;;2.50;0.60;;;;;;;2.99;100.00;92279.31;2115351;27;20061;-83
2023/04/02 03:04:34;;;;;;;0.63;0.63;;;;;;;2.97;100.00;92284.97;2110150;28;20575;-84
2023/04/02 03:05:37;;;;;;;2.13;0.50;;;;;;;3.01;100.00;92287.59;2116330;27;20028;-84
2023/04/02 03:06:40;;;;;;;1.70;0.60;;;;;;;3.03;100.00;92291.34;2115693;28;20111;-84
2023/04/02 03:07:43;;;;;;;2.97;0.85;;;;;;;3.06;100.00;92286.44;2114890;27;20035;-83
2023/04/02 03:09:33;;;;;;;1.77;0.55;;;;;;;3.17;100.00;92292.41;2115549;27;20055;-83
2023/04/02 03:10:54;;;;;;;0.60;0.60;;;;;;;3.11;100.00;92296.56;2119606;27;20046;-84
2023/04/02 03:12:18;;;;;;;1.27;0.73;;;;;;;3.16;100.00;92288.22;2119125;27;20023;-83
2023/04/02 03:13:26;;;;;;;2.63;0.77;;;;;;;3.00;100.00;92297.41;2122090;27;20030;-83
2023/04/02 03:15:01;;;;;;;1.10;0.70;;;;;;;3.00;100.00;92296.66;2115766;28;20034;-83
2023/04/02 03:16:34;;;;;;;1.40;0.60;;;;;;;2.94;100.00;92296.31;2115390;27;20037;-82
2023/04/02 03:18:05;;;;;;;0.98;0.70;;;;;;;2.95;100.00;92308.38;2126759;27;20499;-84
2023/04/02 03:19:29;;;;;;;1.15;0.60;;;;;;;2.93;100.00;92299.34;2106333;27;20116;-83
2023/04/02 03:20:46;;;;;;;0.60;0.60;;;;;;;2.99;100.00;92306.47;2122719;27;20030;-83
2023/04/02 03:22:15;;;;;;;0.70;0.52;;;;;;;2.95;100.00;92297.81;2123523;27;20027;-83
2023/04/02 03:23:23;;;;;;;1.20;0.50;;;;;;;3.00;100.00;92302.69;2113971;28;20123;-83
2023/04/02 03:25:08;;;;;;;1.02;0.60;;;;;;;3.11;100.00;92304.50;2114195;27;20027;-84
2023/04/02 03:26:34;;;;;;;1.48;0.70;;;;;;;2.96;100.00;92304.59;2126328;27;20031;-84
2023/04/02 03:27:43;;;;;;;0.70;0.50;;;;;;;3.03;100.00;92303.81;2122946;27;20027;-83
2023/04/02 03:29:04;;;;;;;0.70;0.60;;;;;;;2.93;100.00;92307.25;2109168;28;20020;-83
2023/04/02 03:30:35;;;;;;;0.88;0.68;;;;;;;2.93;100.00;92304.59;2109372;28;20046;-83
2023/04/02 03:31:49;;;;;;;2.33;0.88;;;;;;;3.00;100.00;92300.03;2107793;28;20368;-83
2023/04/02 03:32:55;;;;;;;1.08;0.60;;;;;;;2.97;100.00;92308.72;2098387;28;20149;-83
2023/04/02 03:34:22;;;;;;;3.17;0.90;;;;;;;2.77;100.00;92308.47;2095955;28;20518;-83
2023/04/02 03:35:35;;;;;;;0.50;0.50;;;;;;;2.80;100.00;92303.56;2109021;27;20027;-83
2023/04/02 03:36:55;;;;;;;3.65;0.70;;;;;;;2.74;100.00;92298.69;2102475;28;20028;-83
2023/04/02 03:38:04;;;;;;;0.98;0.77;;;;;;;2.67;100.00;92301.34;2105867;27;20051;-83
2023/04/02 03:39:19;;;;;;;1.83;0.98;;;;;;;2.63;100.00;92307.78;2107934;27;20036;-83
2023/04/02 03:40:25;;;;;;;1.92;0.82;;;;;;;3.05;100.00;92306.06;2110767;27;20394;-83
2023/04/02 03:41:43;;;;;;;1.15;0.80;;;;;;;2.97;100.00;92300.81;2101289;28;20073;-83
2023/04/02 03:42:50;;;;;;;0.80;0.80;;;;;;;2.91;100.00;92305.00;2115517;27;20027;-83
2023/04/02 03:43:57;;;;;;;2.25;0.70;;;;;;;2.85;100.00;92311.06;2101928;28;20441;-83
2023/04/02 03:45:13;;;;;;;1.58;0.70;;;;;;;2.75;100.00;92307.34;2102087;27;20399;-83
2023/04/02 03:46:31;;;;;;;3.30;1.00;;;;;;;2.66;100.00;92307.78;2107635;28;20023;-83
2023/04/02 03:47:37;;;;;;;3.25;0.82;;;;;;;2.63;100.00;92305.91;2105748;28;20024;-83
2023/04/02 03:48:50;;;;;;;0.95;0.80;;;;;;;2.63;100.00;92313.06;2101256;28;20021;-83
2023/04/02 03:50:15;;;;;;;1.90;1.13;;;;;;;2.61;100.00;92310.06;2097501;28;20417;-84
2023/04/02 03:51:20;;;;;;;1.13;0.90;;;;;;;2.62;100.00;92311.56;2077936;28;20183;-83
2023/04/02 03:52:28;;;;;;;1.35;1.00;;;;;;;2.60;100.00;92317.25;2104395;28;20394;-83
2023/04/02 03:53:31;;;;;;;1.80;0.85;;;;;;;2.58;100.00;92313.47;2100623;27;20032;-83
2023/04/02 03:54:36;;;;;;;1.73;0.90;;;;;;;2.56;100.00;92318.41;2101040;28;20483;-83
2023/04/02 03:55:51;;;;;;;5.88;1.10;;;;;;;2.61;100.00;92312.72;2100579;28;20119;-83
2023/04/02 03:57:00;;;;;;;2.05;0.80;;;;;;;2.72;100.00;92316.81;2093133;28;20024;-83
2023/04/02 03:58:25;;;;;;;1.45;0.65;;;;;;;2.84;100.00;92312.22;2092355;28;20107;-83
2023/04/02 03:59:49;;;;;;;1.45;0.70;;;;;;;2.80;100.00;92317.50;2100408;28;20039;-84
2023/04/02 04:01:16;;;;;;;1.40;0.80;;;;;;;2.76;100.00;92316.75;2098681;28;20385;-84
2023/04/02 04:02:43;;;;;;;0.80;0.60;;;;;;;2.76;100.00;92320.16;2103733;28;20507;-83
2023/04/02 04:03:57;;;;;;;1.38;0.80;;;;;;;2.79;100.00;92313.38;2112522;28;20020;-84
2023/04/02 04:05:21;;;;;;;1.33;0.60;;;;;;;2.81;100.00;92318.25;2101557;28;20028;-84
2023/04/02 04:06:51;;;;;;;1.40;0.70;;;;;;;2.79;100.00;92321.28;2109782;28;20034;-83
2023/04/02 04:08:09;;;;;;;1.48;0.70;;;;;;;2.78;100.00;92320.53;2109530;28;20459;-84
2023/04/02 04:09:25;;;;;;;0.85;0.68;;;;;;;2.81;100.00;92326.94;2099873;28;20036;-83
2023/04/02 04:10:35;;;;;;;0.50;0.50;;;;;;;3.00;100.00;92329.06;2098455;28;20024;-83
2023/04/02 04:11:57;;;;;;;0.50;0.50;;;;;;;3.05;100.00;92327.91;2098767;28;20017;-83
2023/04/02 04:13:18;;;;;;;0.85;0.32;;;;;;;2.96;100.00;92336.28;2097034;28;20481;-83
2023/04/02 04:14:37;;;;;;;0.93;0.60;;;;;;;2.90;100.00;92332.53;2099410;28;20030;-82
2023/04/02 04:16:06;;;;;;;0.57;0.35;;;;;;;2.96;100.00;92336.28;2100940;28;20078;-83
2023/04/02 04:17:15;;;;;;;0.50;0.50;;;;;;;2.97;100.00;92337.75;2098603;28;20521;-83
2023/04/02 04:18:55;;;;;;;0.90;0.43;;;;;;;3.02;100.00;92342.63;2094800;28;20028;-83
2023/04/02 04:20:07;;;;;;;;;;;;;;;3.01;100.00;92337.75;2103108;28;20027;-83
2023/04/02 04:21:38;;;;;;;0.40;0.30;;;;;;;2.95;100.00;92334.78;2104526;28;19923;-82
2023/04/02 04:22:42;;;;;;;0.82;0.50;;;;;;;2.97;100.00;92344.94;2113562;27;20023;-83
2023/04/02 04:23:52;;;;;;;0.88;0.50;;;;;;;2.95;100.00;92334.78;2109415;28;20378;-83
2023/04/02 04:25:32;;;;;;;0.38;0.38;;;;;;;2.93;100.00;92342.31;2106636;27;20024;-83
2023/04/02 04:27:02;;;;;;;1.23;0.60;;;;;;;2.93;100.00;92341.56;2103043;28;20577;-83
2023/04/02 04:28:06;;;;;;;0.77;0.50;;;;;;;2.93;100.00;92347.59;2095815;28;20262;-83
2023/04/02 04:29:31;;;;;;;0.82;0.60;;;;;;;2.84;100.00;92349.16;2091669;28;20036;-83
2023/04/02 04:31:32;;;;;;;2.50;0.90;;;;;;;2.72;100.00;92355.63;2083373;28;20086;-83
2023/04/02 04:33:00;;;;;;;0.63;0.63;;;;;;;2.68;100.00;92360.19;2078722;28;20111;-83
2023/04/02 04:34:30;;;;;;;0.60;0.60;;;;;;;2.72;100.00;92364.31;2082156;28;20136;-83
2023/04/02 04:35:57;;;;;;;1.52;0.80;;;;;;;2.76;100.00;92362.38;2081094;28;20030;-83
2023/04/02 04:37:27;;;;;;;0.95;0.80;;;;;;;2.73;100.00;92359.78;2084029;28;20483;-83
2023/04/02 04:38:54;;;;;;;1.02;0.90;;;;;;;2.73;100.00;92365.81;2096319;28;20095;-83
2023/04/02 04:40:30;;;;;;;0.70;0.60;;;;;;;2.87;100.00;92374.78;2102229;28;20035;-83
2023/04/02 04:42:01;;;;;;;0.95;0.82;;;;;;;2.75;100.00;92368.03;2104962;28;20034;-84
2023/04/02 04:43:11;;;;;;;1.08;0.70;;;;;;;2.70;100.00;92373.72;2094937;28;20276;-83
2023/04/02 04:45:06;;;;;;;1.38;0.88;;;;;;;2.65;100.00;92379.41;2099648;28;20043;-83
2023/04/02 04:46:45;;;;;;;1.25;0.80;;;;;;;2.70;100.00;92377.13;2103447;28;20039;-82
2023/04/02 04:48:25;;;;;;;1.05;0.77;;;;;;;2.68;100.00;92378.66;2104815;28;20429;-83
2023/04/02 04:49:40;;;;;;;2.15;0.90;;;;;;;2.65;100.00;92377.50;2093411;28;20040;-83
2023/04/02 04:51:06;;;;;;;0.82;0.70;;;;;;;2.66;100.00;92383.53;2098202;28;20061;-82
2023/04/02 04:52:28;;;;;;;0.65;0.65;;;;;;;2.59;100.00;92375.66;2090471;28;20479;-82
2023/04/02 04:53:30;;;;;;;0.80;0.70;;;;;;;2.60;100.00;92383.19;2092236;28;20040;-82
2023/04/02 04:54:57;;;;;;;2.25;0.80;;;;;;;2.61;100.00;92382.06;2096177;28;20514;-83
2023/04/02 04:56:08;;;;;;;1.20;1.00;;;;;;;2.59;100.00;92379.06;2096617;28;20119;-82
2023/04/02 04:57:49;;;;;;;1.77;0.80;;;;;;;2.74;100.00;92382.38;2089105;28;20059;-83
2023/04/02 04:58:59;;;;;;;;;;;;;;;2.73;100.00;92380.88;2076460;28;20032;-82
2023/04/02 05:00:20;;;;;;;1.27;0.73;;;;;;;2.66;100.00;92384.28;2096076;28;19926;-83
2023/04/02 05:02:05;;;;;;;3.20;0.88;;;;;;;2.62;100.00;92380.91;2102816;28;20449;-82
2023/04/02 05:03:38;;;;;;;4.00;1.30;;;;;;;2.61;100.00;92382.06;2100322;28;20124;-83
2023/04/02 05:05:02;;;;;;;3.90;1.92;;;;;;;2.60;100.00;92382.44;2099385;28;20119;-83
2023/04/02 05:06:13;;;;;;;3.00;1.10;;;;;;;2.63;100.00;92392.22;2088838;28;20024;-83
2023/04/02 05:07:29;;;;;;;1.85;1.05;;;;;;;2.72;100.00;92392.56;2085045;28;20106;-83
2023/04/02 05:08:44;;;;;;;0.80;0.80;;;;;;;2.64;100.00;92391.09;2095689;28;20055;-82
2023/04/02 05:10:01;;;;;;;0.70;0.70;;;;;;;2.67;100.00;92390.31;2089538;28;20016;-83
2023/04/02 05:11:15;;;;;;;1.25;0.90;;;;;;;2.64;100.00;92394.50;2087811;28;20523;-82
2023/04/02 05:12:40;;;;;;;1.15;1.00;;;;;;;2.59;100.00;92389.63;2089389;28;20080;-83
2023/04/02 05:14:00;;;;;;;2.28;0.90;;;;;;;2.63;100.00;92394.84;2089367;28;20062;-83
2023/04/02 05:15:14;;;;;;;0.90;0.90;;;;;;;2.61;100.00;92394.50;2085750;28;20036;-83
2023/04/02 05:16:42;;;;;;;1.10;1.02;;;;;;;2.65;100.00;92395.25;2087111;28;20026;-83
2023/04/02 05:18:05;;;;;;;2.22;0.80;;;;;;;2.65;100.00;92395.97;2073931;28;20034;-84
2023/04/02 05:19:25;;;;;;;1.23;0.80;;;;;;;2.69;100.00;92401.25;2099087;28;20694;-84
2023/04/02 05:20:55;;;;;;;1.70;0.90;;;;;;;2.64;100.00;92404.28;2095476;28;20118;-84
2023/04/02 05:22:41;;;;;;;1.35;1.20;;;;;;;2.62;100.00;92401.28;2090230;28;20035;-84
2023/04/02 05:24:11;;;;;;;1.40;1.17;;;;;;;2.57;100.00;92405.06;2082712;28;20032;-82
2023/04/02 05:25:26;;;;;;;0.70;0.70;;;;;;;2.63;100.00;92408.78;2090145;28;20744;-82
2023/04/02 05:26:49;;;;;;;1.38;0.65;;;;;;;2.69;100.00;92409.16;2091454;28;20036;-83
2023/04/02 05:28:06;;;;;;;3.00;0.80;;;;;;;2.66;100.00;92405.41;2086626;28;20092;-81
2023/04/02 05:29:23;;;;;;;1.15;0.80;;;;;;;2.71;100.00;92414.81;2080904;28;20065;-82
2023/04/02 05:31:00;;;;;;;7.60;3.60;;;;;;;2.69;100.00;92411.81;2104148;28;20066;-83
2023/04/02 05:32:40;;;;;;;2.53;2.22;;;;;;;2.63;100.00;92414.06;2100200;28;20020;-83
2023/04/02 05:33:49;;;;;;;1.77;1.27;;;;;;;2.57;100.00;92414.84;2071649;28;20540;-83
2023/04/02 05:35:05;;;;;;;0.95;0.95;;;;;;;2.64;100.00;92414.84;2072071;28;20072;-84
2023/04/02 05:36:22;;;;;;;1.30;1.20;;;;;;;2.66;100.00;92421.22;2080381;28;20060;-83
2023/04/02 05:37:29;;;;;;;1.80;1.70;;;;;;;2.71;100.00;92414.81;2102757;28;20111;-83
2023/04/02 05:38:43;;;;;;;2.40;1.23;;;;;;;2.73;100.00;92418.56;2096851;28;20034;-84
2023/04/02 05:39:57;;;;;;;3.63;1.30;;;;;;;2.73;100.00;92425.75;2107855;27;20109;-82
2023/04/02 05:41:29;;;;;;;3.00;1.10;;;;;;;2.64;100.00;92420.88;2109864;28;20030;-83
2023/04/02 05:42:36;;;;;;;1.30;1.00;;;;;;;2.64;100.00;92423.50;2110290;28;20027;-84
2023/04/02 05:43:50;;;;;;;1.30;1.20;;;;;;;2.77;100.00;92427.22;2097614;28;20039;-84
2023/04/02 05:45:25;;;;;;;1.98;1.45;;;;;;;2.77;100.00;92426.47;2103474;27;20061;-82
2023/04/02 05:47:05;;;;;;;2.65;1.30;;;;;;;2.59;100.00;92429.19;2103951;28;20535;-83
2023/04/02 05:48:25;;;;;;;2.80;1.50;;;;;;;2.61;100.00;92428.78;2106441;28;20027;-83
2023/04/02 05:49:35;;;;;;;1.63;1.38;;;;;;;2.68;100.00;92434.06;2097861;28;20294;-83
2023/04/02 05:50:42;;;;;;;2.95;1.50;;;;;;;2.71;100.00;92433.28;2097803;28;20033;-83
2023/04/02 05:51:56;;;;;;;1.50;1.40;;;;;;;2.65;100.00;92432.91;2102623;27;20520;-83
2023/04/02 05:53:13;;;;;;;1.63;1.52;;;;;;;2.68;100.00;92437.44;2105630;28;20452;-83
2023/04/02 05:54:30;;;;;;;1.77;1.55;;;;;;;2.68;100.00;92436.69;2107033;27;20028;-83
2023/04/02 05:55:42;;;;;;;1.60;1.50;;;;;;;2.66;100.00;92439.69;2099817;28;20078;-82
2023/04/02 05:56:59;;;;;;;1.33;1.20;;;;;;;2.81;100.00;92443.06;2102273;28;20027;-83
2023/04/02 05:58:12;;;;;;;1.60;1.50;;;;;;;2.78;100.00;92446.44;2094983;28;20028;-82
2023/04/02 05:59:22;;;;;;;1.60;1.47;;;;;;;2.74;100.00;92443.81;2098344;28;20073;-82
2023/04/02 06:00:28;;;;;;;2.83;1.70;;;;;;;2.65;100.00;92461.19;2109295;28;20127;-83
2023/04/02 06:01:51;;;;;;;2.13;1.80;;;;;;;2.69;100.00;92448.75;2107932;28;20565;-83
2023/04/02 06:03:06;;;;;;;2.53;2.05;;;;;;;2.76;100.00;92454.72;2093388;28;20514;-83
2023/04/02 06:04:26;;;;;;;3.13;1.83;;;;;;;2.74;100.00;92448.34;2101718;28;20024;-83
2023/04/02 06:05:35;;;;;;;1.70;1.60;;;;;;;2.80;100.00;92451.34;2104898;28;20116;-83
2023/04/02 06:06:59;;;;;;;2.13;2.03;;;;;;;2.94;100.00;92459.19;2106871;28;20027;-83
2023/04/02 06:08:09;;;;;;;2.15;1.40;;;;;;;2.87;100.00;92452.06;2097329;28;20115;-84
2023/04/02 06:09:29;;;;;;;1.65;1.40;;;;;;;2.88;100.00;92464.13;2092449;28;20128;-83
2023/04/02 06:10:59;;;;;;;2.55;2.00;;;;;;;2.90;100.00;92448.69;2092456;28;20025;-83
2023/04/02 06:12:11;;;;;;;3.40;3.10;;;;;;;2.87;100.00;92452.06;2089921;28;20127;-83
2023/04/02 06:13:18;;;;;;;2.53;2.33;;;;;;;2.89;100.00;92457.72;2094171;28;20033;-83
2023/04/02 06:14:20;;;;;;;1.50;1.40;;;;;;;2.91;100.00;92454.69;2100216;28;20126;-83
2023/04/02 06:15:23;;;;;;;1.40;1.30;;;;;;;2.94;100.00;92459.97;2098977;28;20132;-82
2023/04/02 06:16:30;;;;;;;2.10;1.95;;;;;;;3.00;100.00;92455.78;2091817;28;20130;-83